メインページ
METAR-TAF:

METAR-TAF

空港 :

Joliet Regional Airport

ジョリエット, イリノイ州, アメリカ合衆国

緯度: 41-31-05N, 経度: 088-10-31W, 海抜: 177m

現時点の気象観測

当レポートは17分前の00:35(UTC)に作成
北東の風 5kt
気温 20°C
湿度 60%
気圧 1022 hPa
視程: 16.1km
晴天

METAR: KJOT 250035Z AUTO 05005KT 10SM CLR 20/12 A3019 RMK AO2 T02000116

時間: 19:52 (00:52 UTC)


TAF: 見つかりません

4,000以上の空港の気象観測と天気予報(METAR報とTAF報)

利用可能な観測所は地図上に黄色い丸と赤い丸で示す。

丸の上にカーソルを重ねると観測所名を参照できる。

次にクリックすると気象観測と天気予報を参照できる。

マップの切り替え:黒色「×」印の緑ボタンをクリックして拡大、「-」印の緑ボタンをクリックして縮小、緑色の三角印をクリックして隣りの地図に切り替え


METAR-TAF: